Time;durP1;ratioP1;P1;durP2;ratioP2;P2;SDS_P1;SDS_P2;PMS_P1;PMS_P2;Temp;Humidity;BMP_temperature;BMP_pressure;BME280_temperature;BME280_humidity;BME280_pressure;Samples;Min_cycle;Max_cycle;Signal;HPM_P1;HPM_P2
2023/01/08 00:00:55;;;;;;;2.00;1.90;;;1.20;99.90;;;;;;5008703;28;20939;-73
2023/01/08 00:03:22;;;;;;;2.65;2.00;;;1.10;99.90;;;;;;5008947;28;20580;-73
2023/01/08 00:05:49;;;;;;;2.40;1.90;;;1.10;99.90;;;;;;5006796;28;20206;-73
2023/01/08 00:08:16;;;;;;;1.97;1.40;;;1.10;99.90;;;;;;5006975;28;20494;-73
2023/01/08 00:10:43;;;;;;;4.87;2.20;;;1.00;99.90;;;;;;5007896;28;20898;-73
2023/01/08 00:13:10;;;;;;;3.13;1.90;;;1.00;99.90;;;;;;5007483;28;20489;-73
2023/01/08 00:15:38;;;;;;;1.20;1.10;;;1.00;99.90;;;;;;5009990;28;20481;-73
2023/01/08 00:18:05;;;;;;;3.77;1.50;;;1.00;99.90;;;;;;5014616;28;20458;-73
2023/01/08 00:20:32;;;;;;;1.43;1.30;;;1.00;99.90;;;;;;5004909;28;20557;-73
2023/01/08 00:22:59;;;;;;;3.10;1.80;;;1.00;99.90;;;;;;5011212;28;20518;-73
2023/01/08 00:25:26;;;;;;;1.47;1.37;;;0.90;99.90;;;;;;5008398;28;20625;-73
2023/01/08 00:27:53;;;;;;;1.60;0.90;;;1.00;99.90;;;;;;5009700;28;20555;-73
2023/01/08 00:30:20;;;;;;;4.70;1.80;;;1.00;99.90;;;;;;5007526;28;20454;-73
2023/01/08 00:32:48;;;;;;;1.33;1.13;;;0.90;99.90;;;;;;5006355;28;20513;-73
2023/01/08 00:35:15;;;;;;;1.73;1.63;;;0.80;99.90;;;;;;5006620;28;20478;-73
2023/01/08 00:37:42;;;;;;;2.33;1.20;;;0.70;99.90;;;;;;5010988;28;20573;-73
2023/01/08 00:40:10;;;;;;;1.47;1.37;;;0.70;99.90;;;;;;5006010;28;20486;-73
2023/01/08 00:42:37;;;;;;;1.07;0.97;;;0.70;99.90;;;;;;5012321;28;21089;-73
2023/01/08 00:45:05;;;;;;;1.80;1.70;;;0.60;99.90;;;;;;5012799;28;20478;-73
2023/01/08 00:47:32;;;;;;;1.33;1.00;;;0.60;99.90;;;;;;5009475;28;20502;-73
2023/01/08 00:50:00;;;;;;;1.23;1.00;;;0.70;99.90;;;;;;5005194;28;20235;-73
2023/01/08 00:52:27;;;;;;;1.33;1.23;;;0.70;99.90;;;;;;5004284;28;20204;-73
2023/01/08 00:54:54;;;;;;;22.67;1.93;;;0.60;99.90;;;;;;5008463;28;20465;-73
2023/01/08 00:57:21;;;;;;;1.37;1.27;;;0.60;99.90;;;;;;5015820;28;20752;-73
2023/01/08 00:59:48;;;;;;;1.50;1.40;;;0.50;99.90;;;;;;5005771;28;20875;-73
2023/01/08 01:02:15;;;;;;;1.23;1.13;;;0.50;99.90;;;;;;5005227;28;20955;-73
2023/01/08 01:04:42;;;;;;;1.27;0.80;;;0.50;99.90;;;;;;5003971;28;20446;-73
2023/01/08 01:07:10;;;;;;;2.93;2.73;;;0.50;99.90;;;;;;5006820;28;20557;-73
2023/01/08 01:09:38;;;;;;;2.67;1.10;;;0.50;99.90;;;;;;5007156;28;20897;-73
2023/01/08 01:12:05;;;;;;;3.20;1.13;;;0.70;99.90;;;;;;5015459;28;20463;-73
2023/01/08 01:14:32;;;;;;;1.25;0.90;;;0.80;99.90;;;;;;5008557;28;20934;-73
2023/01/08 01:16:59;;;;;;;2.73;1.07;;;0.70;99.90;;;;;;5002814;28;20223;-73
2023/01/08 01:19:26;;;;;;;0.80;0.70;;;0.70;99.90;;;;;;5007450;28;20496;-73
2023/01/08 01:21:53;;;;;;;1.80;1.00;;;0.70;99.90;;;;;;5004842;28;20458;-73
2023/01/08 01:24:23;;;;;;;1.63;0.97;;;0.70;99.90;;;;;;5010552;28;20892;-73
2023/01/08 01:26:50;;;;;;;0.97;0.77;;;0.70;99.90;;;;;;5008553;28;20459;-72
2023/01/08 01:29:17;;;;;;;2.13;0.80;;;0.60;99.90;;;;;;5006984;28;20532;-73
2023/01/08 01:31:44;;;;;;;2.57;0.80;;;0.50;99.90;;;;;;5002866;28;20474;-73
2023/01/08 01:34:11;;;;;;;1.10;1.00;;;0.60;99.90;;;;;;5004423;28;20465;-72
2023/01/08 01:36:38;;;;;;;1.53;1.43;;;0.60;99.90;;;;;;5008283;28;20536;-73
2023/01/08 01:39:05;;;;;;;1.37;1.00;;;0.60;99.90;;;;;;5011078;28;20509;-73
2023/01/08 01:41:38;;;;;;;2.10;1.00;;;0.70;99.90;;;;;;5008551;28;21016;-73
2023/01/08 01:44:42;;;;;;;1.00;0.70;;;0.80;99.90;;;;;;5010647;28;20521;-72
2023/01/08 01:47:21;;;;;;;1.53;1.30;;;0.80;99.90;;;;;;5012067;28;20473;-73
2023/01/08 01:49:53;;;;;;;1.27;1.17;;;0.90;99.90;;;;;;5009223;28;20855;-73
2023/01/08 01:52:21;;;;;;;1.63;1.10;;;1.00;99.90;;;;;;5004961;28;20451;-73
2023/01/08 01:54:49;;;;;;;1.87;1.30;;;1.10;99.90;;;;;;5007635;28;20463;-73
2023/01/08 01:57:17;;;;;;;2.40;1.30;;;1.10;99.90;;;;;;5005589;28;20455;-73
2023/01/08 01:59:47;;;;;;;1.10;1.00;;;1.20;99.90;;;;;;5009432;28;20523;-73
2023/01/08 02:02:14;;;;;;;1.93;1.57;;;1.20;99.90;;;;;;5007032;28;20930;-73
2023/01/08 02:04:41;;;;;;;2.50;1.00;;;1.30;99.90;;;;;;5004715;28;20525;-72
2023/01/08 02:07:15;;;;;;;1.75;1.40;;;1.30;99.90;;;;;;5009634;28;20481;-73
2023/01/08 02:09:51;;;;;;;5.07;1.83;;;1.30;99.90;;;;;;5007835;28;20243;-73
2023/01/08 02:12:26;;;;;;;1.10;1.00;;;1.30;99.90;;;;;;5005973;28;20527;-73
2023/01/08 02:15:02;;;;;;;2.95;1.48;;;1.40;99.90;;;;;;5006406;28;20515;-73
2023/01/08 02:17:38;;;;;;;1.73;1.10;;;1.40;99.90;;;;;;5007140;28;20207;-73
2023/01/08 02:20:11;;;;;;;1.47;1.37;;;1.40;99.90;;;;;;5008873;28;20461;-73
2023/01/08 02:22:52;;;;;;;2.23;1.40;;;1.30;99.90;;;;;;5015176;28;20841;-73
2023/01/08 02:25:30;;;;;;;1.93;1.27;;;1.10;99.90;;;;;;5011670;28;20976;-72
2023/01/08 02:28:02;;;;;;;1.83;1.50;;;0.90;99.90;;;;;;5005530;28;20450;-73
2023/01/08 02:30:30;;;;;;;4.77;1.07;;;0.80;99.90;;;;;;5009804;28;20462;-73
2023/01/08 02:32:57;;;;;;;0.80;0.80;;;0.70;99.90;;;;;;5009671;28;20474;-73
2023/01/08 02:35:25;;;;;;;1.00;0.93;;;0.60;99.90;;;;;;5014048;28;20510;-73
2023/01/08 02:37:52;;;;;;;1.33;1.00;;;0.50;99.90;;;;;;5015769;28;20464;-72
2023/01/08 02:40:27;;;;;;;0.93;0.70;;;0.50;99.90;;;;;;5012506;28;20478;-73
2023/01/08 02:43:00;;;;;;;1.57;1.23;;;0.50;99.90;;;;;;5012253;28;20539;-72
2023/01/08 02:45:36;;;;;;;1.17;1.00;;;0.50;99.90;;;;;;5009639;28;20450;-73
2023/01/08 02:48:10;;;;;;;1.63;1.17;;;0.40;99.90;;;;;;5015410;28;20203;-73
2023/01/08 02:50:41;;;;;;;1.93;0.80;;;0.40;99.90;;;;;;5012373;28;20498;-72
2023/01/08 02:53:14;;;;;;;1.13;1.03;;;0.30;99.90;;;;;;5010301;28;20547;-72
2023/01/08 02:55:45;;;;;;;1.70;1.03;;;0.30;99.90;;;;;;5009632;28;20528;-72
2023/01/08 02:58:14;;;;;;;1.40;1.30;;;0.20;99.90;;;;;;5009608;28;20490;-73
2023/01/08 03:00:44;;;;;;;1.13;1.07;;;0.30;99.90;;;;;;5007852;28;20450;-72
2023/01/08 03:03:14;;;;;;;2.20;1.70;;;0.30;99.90;;;;;;5014220;28;21035;-72
2023/01/08 03:05:45;;;;;;;1.67;1.33;;;0.40;99.90;;;;;;5007788;28;20530;-72
2023/01/08 03:08:12;;;;;;;2.33;1.30;;;0.50;99.90;;;;;;5011162;28;20924;-72
2023/01/08 03:10:42;;;;;;;3.13;1.83;;;0.40;99.90;;;;;;5011378;28;20792;-73
2023/01/08 03:13:15;;;;;;;1.70;1.10;;;0.40;99.90;;;;;;5008002;28;20445;-72
2023/01/08 03:15:47;;;;;;;2.57;1.00;;;0.30;99.90;;;;;;5006110;28;20497;-72
2023/01/08 03:18:20;;;;;;;1.70;1.20;;;0.20;99.90;;;;;;5012711;28;20450;-72
2023/01/08 03:20:49;;;;;;;1.30;1.20;;;0.20;99.90;;;;;;5010019;28;20482;-72
2023/01/08 03:23:17;;;;;;;2.20;1.10;;;0.20;99.90;;;;;;5010722;28;20543;-73
2023/01/08 03:25:46;;;;;;;2.27;1.53;;;0.20;99.90;;;;;;5018288;28;20455;-72
2023/01/08 03:28:21;;;;;;;2.87;2.33;;;0.20;99.90;;;;;;5011185;28;20467;-72
2023/01/08 03:30:50;;;;;;;9.53;5.70;;;0.20;99.90;;;;;;5011850;28;20481;-72
2023/01/08 03:33:19;;;;;;;15.03;6.47;;;0.20;99.90;;;;;;5017052;28;20509;-74
2023/01/08 03:35:49;;;;;;;34.47;6.63;;;0.00;99.90;;;;;;5008816;28;20453;-74
2023/01/08 03:38:21;;;;;;;8.90;4.83;;;-0.10;99.90;;;;;;5009498;28;20508;-75
2023/01/08 03:40:52;;;;;;;17.33;6.60;;;-0.10;99.90;;;;;;5008231;28;20548;-74
2023/01/08 03:43:20;;;;;;;12.00;6.32;;;-0.20;99.90;;;;;;5011726;28;20550;-74
2023/01/08 03:45:51;;;;;;;10.15;3.80;;;-0.20;99.90;;;;;;5006847;28;20510;-74
2023/01/08 03:48:20;;;;;;;6.97;3.87;;;-0.20;99.90;;;;;;5012078;28;20531;-74
2023/01/08 03:50:47;;;;;;;7.30;4.22;;;-0.30;99.90;;;;;;5006430;28;20952;-73
2023/01/08 03:53:14;;;;;;;3.93;3.60;;;-0.20;99.90;;;;;;5013436;28;20640;-73
2023/01/08 03:55:41;;;;;;;8.83;5.00;;;-0.30;99.90;;;;;;5019549;28;20480;-73
2023/01/08 03:58:09;;;;;;;6.23;3.70;;;-0.30;99.90;;;;;;5012534;28;20485;-72
2023/01/08 04:00:37;;;;;;;10.37;4.40;;;-0.30;99.90;;;;;;5009306;28;20441;-73
2023/01/08 04:03:04;;;;;;;6.43;3.73;;;-0.40;99.90;;;;;;5009728;28;20934;-72
2023/01/08 04:05:31;;;;;;;3.10;2.70;;;-0.50;99.90;;;;;;5014447;28;20525;-72
2023/01/08 04:07:58;;;;;;;8.50;5.50;;;-0.50;99.90;;;;;;5004631;28;20540;-73
2023/01/08 04:10:26;;;;;;;17.93;5.43;;;-0.40;99.90;;;;;;5007104;28;20964;-73
2023/01/08 04:12:53;;;;;;;24.77;7.47;;;-0.20;99.90;;;;;;5006493;28;20520;-73
2023/01/08 04:15:20;;;;;;;14.63;7.20;;;-0.20;99.90;;;;;;5008167;28;20526;-73
2023/01/08 04:17:49;;;;;;;20.03;7.83;;;-0.20;99.90;;;;;;5013762;28;21387;-73
2023/01/08 04:20:16;;;;;;;9.87;5.20;;;0.00;99.90;;;;;;5009251;28;20543;-73
2023/01/08 04:22:43;;;;;;;11.90;5.97;;;0.10;99.90;;;;;;5006122;28;20462;-73
2023/01/08 04:25:10;;;;;;;15.67;6.90;;;0.10;99.90;;;;;;5007399;28;20617;-73
2023/01/08 04:27:36;;;;;;;20.25;5.50;;;0.20;99.90;;;;;;5015070;28;20508;-73
2023/01/08 04:30:04;;;;;;;14.07;5.20;;;0.20;99.90;;;;;;5007944;28;20234;-72
2023/01/08 04:32:31;;;;;;;23.43;7.20;;;0.20;99.90;;;;;;5013648;28;20467;-73
2023/01/08 04:34:59;;;;;;;33.07;6.97;;;0.20;99.90;;;;;;5003318;28;20930;-73
2023/01/08 04:37:26;;;;;;;30.38;10.05;;;0.20;99.90;;;;;;5008397;28;20992;-73
2023/01/08 04:39:53;;;;;;;29.37;11.03;;;0.30;99.90;;;;;;5003750;28;20535;-73
2023/01/08 04:42:20;;;;;;;22.53;9.80;;;0.30;99.90;;;;;;5007177;28;20575;-73
2023/01/08 04:44:47;;;;;;;24.03;9.97;;;0.40;99.90;;;;;;5005784;28;20685;-73
2023/01/08 04:47:14;;;;;;;46.33;13.17;;;0.40;99.90;;;;;;5014718;28;20510;-73
2023/01/08 04:49:41;;;;;;;35.10;11.17;;;0.40;99.90;;;;;;5007695;28;20462;-73
2023/01/08 04:52:10;;;;;;;33.97;13.03;;;0.50;99.90;;;;;;5005685;28;20472;-73
2023/01/08 04:54:37;;;;;;;62.00;18.47;;;0.60;99.90;;;;;;5010628;28;20999;-73
2023/01/08 04:57:04;;;;;;;62.20;16.30;;;0.60;99.90;;;;;;5006535;28;20450;-73
2023/01/08 04:59:31;;;;;;;58.57;15.90;;;0.50;99.90;;;;;;5009372;28;20499;-73
2023/01/08 05:01:58;;;;;;;50.93;15.33;;;0.60;99.90;;;;;;5009494;28;20852;-73
2023/01/08 05:04:25;;;;;;;70.83;17.43;;;0.60;99.90;;;;;;5009618;28;20584;-73
2023/01/08 05:06:52;;;;;;;20.33;9.30;;;0.70;99.90;;;;;;5007120;28;20487;-73
2023/01/08 05:09:21;;;;;;;62.53;17.15;;;0.60;99.90;;;;;;5008058;28;20914;-73
2023/01/08 05:11:48;;;;;;;40.90;13.43;;;0.70;99.90;;;;;;5008875;28;20213;-73
2023/01/08 05:14:15;;;;;;;26.63;10.77;;;0.60;99.90;;;;;;5015401;28;20531;-73
2023/01/08 05:16:42;;;;;;;24.17;11.27;;;0.70;99.90;;;;;;5009431;28;20843;-73
2023/01/08 05:19:09;;;;;;;19.70;9.67;;;0.80;99.90;;;;;;5011430;28;20448;-73
2023/01/08 05:21:36;;;;;;;17.30;9.97;;;0.80;99.90;;;;;;5006354;28;20531;-73
2023/01/08 05:24:03;;;;;;;32.87;15.07;;;0.90;99.90;;;;;;5007732;28;20566;-73
2023/01/08 05:26:31;;;;;;;45.33;17.67;;;0.90;99.90;;;;;;5008553;28;20844;-73
2023/01/08 05:28:58;;;;;;;17.13;11.43;;;1.00;99.90;;;;;;5010914;28;21004;-73
2023/01/08 05:31:25;;;;;;;35.77;14.00;;;1.10;99.90;;;;;;5008903;28;20544;-73
2023/01/08 05:33:52;;;;;;;16.37;9.33;;;1.20;99.90;;;;;;5006318;28;21253;-73
2023/01/08 05:36:19;;;;;;;29.50;15.17;;;1.20;99.90;;;;;;5008214;28;21413;-73
2023/01/08 05:38:46;;;;;;;35.60;13.73;;;1.30;99.90;;;;;;5006704;28;20552;-73
2023/01/08 05:41:13;;;;;;;33.87;14.30;;;1.30;99.90;;;;;;5007338;28;20450;-73
2023/01/08 05:43:41;;;;;;;43.70;18.00;;;1.40;99.90;;;;;;5012854;28;21395;-73
2023/01/08 05:46:08;;;;;;;44.67;18.63;;;1.50;99.90;;;;;;5005475;28;20466;-74
2023/01/08 05:48:36;;;;;;;41.95;17.73;;;1.50;99.90;;;;;;5009132;28;20568;-74
2023/01/08 05:51:04;;;;;;;65.73;16.90;;;1.60;99.90;;;;;;5002104;28;20621;-73
2023/01/08 05:53:32;;;;;;;122.53;23.33;;;1.60;99.90;;;;;;5006310;28;20744;-74
2023/01/08 05:56:00;;;;;;;88.07;22.40;;;1.70;99.90;;;;;;5008845;28;20905;-74
2023/01/08 05:58:27;;;;;;;62.47;18.77;;;1.70;99.90;;;;;;5020052;28;20688;-74
2023/01/08 06:01:00;;;;;;;54.10;16.37;;;1.80;99.90;;;;;;5008529;28;20215;-74
2023/01/08 06:03:27;;;;;;;58.87;19.60;;;1.80;99.90;;;;;;5011559;28;20511;-73
2023/01/08 06:05:58;;;;;;;81.43;22.83;;;1.90;99.90;;;;;;5004984;28;20916;-74
2023/01/08 06:08:25;;;;;;;73.80;22.20;;;1.90;99.90;;;;;;5008009;28;20619;-74
2023/01/08 06:10:52;;;;;;;48.93;18.73;;;2.00;99.90;;;;;;5013253;28;20481;-74
2023/01/08 06:13:19;;;;;;;57.73;17.23;;;2.00;99.90;;;;;;5017097;28;20451;-74
2023/01/08 06:15:46;;;;;;;143.33;33.13;;;2.00;99.90;;;;;;5009386;28;21009;-73
2023/01/08 06:18:14;;;;;;;224.47;46.70;;;2.00;99.90;;;;;;5013062;28;20459;-74
2023/01/08 06:20:41;;;;;;;196.63;35.83;;;2.10;99.90;;;;;;5012382;28;20465;-74
2023/01/08 06:23:08;;;;;;;245.77;48.87;;;2.10;99.90;;;;;;5011552;28;20442;-73
2023/01/08 06:25:35;;;;;;;180.03;35.30;;;2.20;99.90;;;;;;5013116;28;20488;-74
2023/01/08 06:28:02;;;;;;;266.53;51.23;;;2.20;99.90;;;;;;5009379;28;20443;-74
2023/01/08 06:30:29;;;;;;;186.47;37.47;;;2.20;99.90;;;;;;5010629;28;20499;-74
2023/01/08 06:32:56;;;;;;;174.50;39.57;;;2.20;99.90;;;;;;5008810;28;20502;-74
2023/01/08 06:35:25;;;;;;;103.77;22.50;;;2.10;99.90;;;;;;5008860;28;20844;-74
2023/01/08 06:37:52;;;;;;;100.63;25.73;;;2.00;99.90;;;;;;5007383;28;20520;-74
2023/01/08 06:40:19;;;;;;;149.07;29.67;;;2.00;99.90;;;;;;5012843;28;20470;-74
2023/01/08 06:42:46;;;;;;;126.43;30.77;;;2.00;99.90;;;;;;5014245;28;20486;-74
2023/01/08 06:45:13;;;;;;;87.27;20.47;;;2.00;99.90;;;;;;5019451;28;20496;-74
2023/01/08 06:47:40;;;;;;;93.30;21.93;;;2.00;99.90;;;;;;5022103;28;20488;-73
2023/01/08 06:50:08;;;;;;;53.23;17.00;;;2.10;99.90;;;;;;5006308;28;20458;-74
2023/01/08 06:52:36;;;;;;;100.93;25.13;;;2.10;99.90;;;;;;5009951;28;20547;-74
2023/01/08 06:55:04;;;;;;;123.10;28.50;;;2.20;99.90;;;;;;5014314;28;20461;-74
2023/01/08 06:57:32;;;;;;;160.07;40.47;;;2.30;99.90;;;;;;5014365;28;20802;-74
2023/01/08 06:59:58;;;;;;;187.93;46.40;;;2.20;99.90;;;;;;5018641;28;20465;-74
2023/01/08 07:02:25;;;;;;;291.73;55.03;;;2.30;99.90;;;;;;5024666;28;20492;-74
2023/01/08 07:04:52;;;;;;;201.93;33.60;;;2.40;99.90;;;;;;5021987;28;20747;-74
2023/01/08 07:07:19;;;;;;;190.02;36.28;;;2.10;99.90;;;;;;5013967;28;20502;-74
2023/01/08 07:09:48;;;;;;;133.03;29.90;;;1.80;99.90;;;;;;5032385;28;20320;-74
2023/01/08 07:12:15;;;;;;;61.00;17.30;;;1.70;99.90;;;;;;5018986;28;20477;-74
2023/01/08 07:14:42;;;;;;;141.33;29.93;;;1.60;99.90;;;;;;5024891;28;20551;-74
2023/01/08 07:17:09;;;;;;;319.57;50.67;;;1.50;99.90;;;;;;5022968;28;20481;-73
2023/01/08 07:19:36;;;;;;;112.03;22.10;;;1.40;99.90;;;;;;5021136;28;20462;-74
2023/01/08 07:22:03;;;;;;;51.60;14.97;;;1.50;99.90;;;;;;5022928;28;20484;-74
2023/01/08 07:24:30;;;;;;;69.37;18.23;;;1.40;99.90;;;;;;5022750;28;20443;-74
2023/01/08 07:26:58;;;;;;;58.10;15.17;;;1.60;99.90;;;;;;5008236;28;20494;-73
2023/01/08 07:29:26;;;;;;;22.87;10.40;;;1.70;99.90;;;;;;5013008;28;20489;-73
2023/01/08 07:31:53;;;;;;;19.33;10.70;;;1.80;99.90;;;;;;5021510;28;20472;-73
2023/01/08 07:34:20;;;;;;;59.97;18.60;;;2.00;99.90;;;;;;5019684;28;20984;-73
2023/01/08 07:36:47;;;;;;;34.83;14.10;;;2.00;99.90;;;;;;5024216;28;20848;-74
2023/01/08 07:39:13;;;;;;;61.30;21.30;;;2.10;99.90;;;;;;5018632;28;20567;-73
2023/01/08 07:41:40;;;;;;;62.70;18.83;;;2.20;99.90;;;;;;5023152;28;20782;-73
2023/01/08 07:44:09;;;;;;;98.70;27.10;;;2.30;99.90;;;;;;5017253;28;20925;-74
2023/01/08 07:46:36;;;;;;;49.60;15.97;;;2.30;99.90;;;;;;5021904;28;20957;-73
2023/01/08 07:49:04;;;;;;;45.63;16.53;;;2.50;99.90;;;;;;5017328;28;20527;-74
2023/01/08 07:51:30;;;;;;;58.00;18.10;;;2.50;99.90;;;;;;5018310;28;20470;-74
2023/01/08 07:53:57;;;;;;;75.70;21.40;;;2.50;99.90;;;;;;5019378;28;20600;-74
2023/01/08 07:56:24;;;;;;;100.40;24.53;;;2.60;99.90;;;;;;5019326;28;20498;-74
2023/01/08 07:58:51;;;;;;;40.63;14.68;;;2.50;99.90;;;;;;5003043;28;20466;-72
2023/01/08 08:01:20;;;;;;;31.13;13.50;;;2.60;99.90;;;;;;5011263;28;20641;-72
2023/01/08 08:03:47;;;;;;;127.10;28.67;;;2.60;99.90;;;;;;5021301;28;20490;-73
2023/01/08 08:06:14;;;;;;;81.30;24.07;;;2.50;99.90;;;;;;5015330;28;20606;-74
2023/01/08 08:08:41;;;;;;;117.47;34.20;;;2.50;99.90;;;;;;5010868;28;20535;-75
2023/01/08 08:11:08;;;;;;;68.90;18.37;;;2.60;99.90;;;;;;5007315;28;20548;-74
2023/01/08 08:13:34;;;;;;;82.87;28.57;;;2.60;99.90;;;;;;5007324;28;20808;-72
2023/01/08 08:16:02;;;;;;;46.28;21.23;;;2.60;99.90;;;;;;5010830;28;20482;-75
2023/01/08 08:18:31;;;;;;;32.80;19.47;;;2.50;99.90;;;;;;5016438;28;20207;-75
2023/01/08 08:20:58;;;;;;;23.73;12.60;;;2.50;99.90;;;;;;5016673;28;20466;-75
2023/01/08 08:23:25;;;;;;;32.70;14.10;;;2.60;99.90;;;;;;5016540;28;20478;-75
2023/01/08 08:25:52;;;;;;;32.87;14.97;;;2.60;99.90;;;;;;5018401;28;20572;-75
2023/01/08 08:28:19;;;;;;;42.77;20.50;;;2.50;99.90;;;;;;5017178;28;20993;-75
2023/01/08 08:30:46;;;;;;;40.30;20.63;;;2.50;99.90;;;;;;5021648;28;20501;-75
2023/01/08 08:33:14;;;;;;;38.17;19.50;;;2.50;99.90;;;;;;5020731;28;20489;-75
2023/01/08 08:35:48;;;;;;;79.67;40.03;;;2.50;99.90;;;;;;5017888;28;20571;-75
2023/01/08 08:38:15;;;;;;;89.22;42.08;;;2.50;99.90;;;;;;5010166;28;20469;-75
2023/01/08 08:40:42;;;;;;;50.83;30.23;;;2.60;99.90;;;;;;5009354;28;20223;-75
2023/01/08 08:43:09;;;;;;;129.30;69.30;;;2.50;99.90;;;;;;5008590;28;20592;-75
2023/01/08 08:45:37;;;;;;;45.23;28.97;;;2.50;99.90;;;;;;5019025;28;20840;-75
2023/01/08 08:48:06;;;;;;;36.13;19.50;;;2.60;99.90;;;;;;5008485;28;20775;-75
2023/01/08 08:50:33;;;;;;;38.43;31.10;;;2.50;99.90;;;;;;5011570;28;20458;-73
2023/01/08 08:53:02;;;;;;;86.93;33.80;;;2.60;99.90;;;;;;5013437;28;20481;-73
2023/01/08 08:55:29;;;;;;;46.73;19.07;;;2.80;99.90;;;;;;5022916;28;20550;-73
2023/01/08 08:58:03;;;;;;;63.13;37.57;;;2.80;99.90;;;;;;5020981;28;20474;-73
2023/01/08 09:00:30;;;;;;;60.93;27.83;;;2.70;99.90;;;;;;5008027;28;20457;-72
2023/01/08 09:02:57;;;;;;;41.33;19.90;;;2.90;99.90;;;;;;5013209;28;20485;-72
2023/01/08 09:05:24;;;;;;;19.08;10.63;;;2.90;99.90;;;;;;5021844;28;21046;-72
2023/01/08 09:07:51;;;;;;;40.63;21.23;;;2.80;99.90;;;;;;5021029;28;20284;-72
2023/01/08 09:10:19;;;;;;;28.13;16.40;;;2.90;99.90;;;;;;5012938;28;20537;-72
2023/01/08 09:12:46;;;;;;;23.30;16.07;;;2.90;99.90;;;;;;5022645;28;20523;-72
2023/01/08 09:15:13;;;;;;;19.47;12.13;;;2.90;99.90;;;;;;5016805;28;21000;-73
2023/01/08 09:17:40;;;;;;;29.53;15.47;;;2.90;99.90;;;;;;5013354;28;20473;-72
2023/01/08 09:20:08;;;;;;;24.67;14.30;;;2.90;99.90;;;;;;5014924;28;20513;-72
2023/01/08 09:22:35;;;;;;;33.20;18.43;;;2.90;99.90;;;;;;5016125;28;20494;-73
2023/01/08 09:25:02;;;;;;;32.10;18.37;;;3.10;99.90;;;;;;5009976;28;20892;-73
2023/01/08 09:27:30;;;;;;;58.27;39.37;;;3.10;99.90;;;;;;5007434;28;20466;-73
2023/01/08 09:29:57;;;;;;;33.77;19.73;;;3.20;99.90;;;;;;5010556;28;20554;-73
2023/01/08 09:32:24;;;;;;;55.67;20.73;;;3.20;99.90;;;;;;5026500;28;20932;-73
2023/01/08 09:34:51;;;;;;;44.33;28.33;;;3.30;99.90;;;;;;5012764;28;20491;-74
2023/01/08 09:37:18;;;;;;;58.80;40.00;;;3.30;99.90;;;;;;5006299;28;20960;-74
2023/01/08 09:39:45;;;;;;;43.60;23.60;;;3.40;99.90;;;;;;5012735;28;20454;-74
2023/01/08 09:42:13;;;;;;;28.17;15.25;;;3.50;99.90;;;;;;5016609;28;20944;-74
2023/01/08 09:44:45;;;;;;;26.60;15.50;;;3.60;99.90;;;;;;5024269;28;20198;-74
2023/01/08 09:47:29;;;;;;;27.03;13.07;;;3.50;99.90;;;;;;5012351;28;20986;-74
2023/01/08 09:50:00;;;;;;;17.57;10.77;;;3.50;99.90;;;;;;5019379;28;20800;-74
2023/01/08 09:52:27;;;;;;;18.47;11.20;;;3.50;99.90;;;;;;5023681;28;20446;-74
2023/01/08 09:54:55;;;;;;;21.17;10.90;;;3.50;99.90;;;;;;5013790;28;20462;-74
2023/01/08 09:57:22;;;;;;;21.30;11.90;;;3.50;99.90;;;;;;5014356;28;21010;-74
2023/01/08 09:59:50;;;;;;;19.27;11.25;;;3.40;99.90;;;;;;5017963;28;21548;-74
2023/01/08 10:02:19;;;;;;;14.48;10.38;;;3.40;99.90;;;;;;5011159;28;20247;-73
2023/01/08 10:04:49;;;;;;;15.67;11.13;;;3.40;99.90;;;;;;5018067;28;20292;-74
2023/01/08 10:07:21;;;;;;;18.70;9.87;;;3.60;99.90;;;;;;5019021;28;20564;-75
2023/01/08 10:09:50;;;;;;;19.63;11.73;;;3.60;99.90;;;;;;5014025;28;20497;-74
2023/01/08 10:12:22;;;;;;;34.80;20.43;;;3.70;99.90;;;;;;5010707;28;20473;-75
2023/01/08 10:14:50;;;;;;;27.80;13.75;;;3.90;99.90;;;;;;5017113;28;20466;-74
2023/01/08 10:17:26;;;;;;;16.67;10.17;;;3.70;99.90;;;;;;5018384;28;20239;-75
2023/01/08 10:19:53;;;;;;;16.00;10.77;;;3.70;99.90;;;;;;5020664;28;20449;-75
2023/01/08 10:22:22;;;;;;;14.57;9.63;;;3.80;99.90;;;;;;5022936;28;20453;-75
2023/01/08 10:24:49;;;;;;;17.83;9.10;;;3.70;99.90;;;;;;5009968;28;20989;-75
2023/01/08 10:27:18;;;;;;;15.97;8.93;;;3.70;99.90;;;;;;5014189;28;20518;-75
2023/01/08 10:29:45;;;;;;;15.97;9.17;;;3.60;99.90;;;;;;5019684;28;20542;-75
2023/01/08 10:32:16;;;;;;;20.83;11.10;;;3.50;99.90;;;;;;5021091;28;20895;-75
2023/01/08 10:34:46;;;;;;;11.27;9.70;;;3.50;99.90;;;;;;5021608;28;20461;-75
2023/01/08 10:37:27;;;;;;;26.83;14.67;;;3.70;99.90;;;;;;5023342;28;20498;-75
2023/01/08 10:39:59;;;;;;;18.33;11.03;;;3.80;99.90;;;;;;5026996;28;20474;-74
2023/01/08 10:42:26;;;;;;;16.73;10.05;;;3.90;99.90;;;;;;5032902;28;20489;-75
2023/01/08 10:45:00;;;;;;;12.17;8.53;;;3.80;99.90;;;;;;5027138;28;20222;-75
2023/01/08 10:47:31;;;;;;;18.00;9.27;;;3.90;99.90;;;;;;5038960;28;20497;-75
2023/01/08 10:50:00;;;;;;;12.03;8.10;;;4.00;99.90;;;;;;5034920;28;20458;-75
2023/01/08 10:52:31;;;;;;;13.30;8.37;;;3.90;99.90;;;;;;5037762;28;20441;-75
2023/01/08 10:54:59;;;;;;;13.83;9.23;;;3.80;99.90;;;;;;5030135;28;20471;-75
2023/01/08 10:57:28;;;;;;;12.37;9.27;;;3.70;99.90;;;;;;5033443;28;20484;-75
2023/01/08 10:59:56;;;;;;;12.80;8.40;;;3.70;99.90;;;;;;5021459;28;20462;-75
2023/01/08 11:02:35;;;;;;;10.47;7.73;;;3.70;99.90;;;;;;5018679;28;20524;-75
2023/01/08 11:05:04;;;;;;;12.93;7.40;;;3.80;99.90;;;;;;5015008;28;20509;-75
2023/01/08 11:07:34;;;;;;;11.27;7.38;;;4.00;99.90;;;;;;5036431;28;20481;-75
2023/01/08 11:10:03;;;;;;;9.03;7.27;;;4.00;99.90;;;;;;5028056;28;20272;-75
2023/01/08 11:12:37;;;;;;;12.83;9.90;;;4.00;99.90;;;;;;5029410;28;20575;-75
2023/01/08 11:15:07;;;;;;;14.10;8.77;;;4.10;99.90;;;;;;5033264;28;20487;-75
2023/01/08 11:17:35;;;;;;;9.93;6.77;;;4.30;99.90;;;;;;5031705;28;20467;-75
2023/01/08 11:20:18;;;;;;;10.33;8.83;;;4.40;99.90;;;;;;5027180;28;20454;-75
2023/01/08 11:22:45;;;;;;;7.27;5.40;;;4.40;99.90;;;;;;5024860;28;20469;-77
2023/01/08 11:25:14;;;;;;;10.40;6.57;;;4.40;99.90;;;;;;5023691;28;20539;-75
2023/01/08 11:27:44;;;;;;;16.10;9.30;;;4.20;99.90;;;;;;5024075;28;20485;-75
2023/01/08 11:30:13;;;;;;;8.20;6.03;;;4.20;99.90;;;;;;5025552;28;20522;-74
2023/01/08 11:32:46;;;;;;;9.73;7.00;;;4.10;99.90;;;;;;5026402;28;20453;-75
2023/01/08 11:35:19;;;;;;;10.33;8.40;;;4.10;99.90;;;;;;5022407;28;20467;-75
2023/01/08 11:37:52;;;;;;;9.55;5.65;;;4.10;99.90;;;;;;5032818;28;20496;-75
2023/01/08 11:40:31;;;;;;;8.80;6.57;;;4.20;99.90;;;;;;5030251;28;20238;-74
2023/01/08 11:43:16;;;;;;;12.70;7.97;;;4.30;99.90;;;;;;5030124;28;20854;-74
2023/01/08 11:45:53;;;;;;;7.60;5.90;;;4.20;99.90;;;;;;5038767;28;20510;-75
2023/01/08 11:48:48;;;;;;;10.48;5.95;;;4.10;99.90;;;;;;5036918;28;20865;-74
2023/01/08 11:51:36;;;;;;;9.23;6.43;;;4.10;99.90;;;;;;5025408;28;20305;-75
2023/01/08 11:54:14;;;;;;;14.43;6.50;;;4.20;99.90;;;;;;5021128;28;20566;-74
2023/01/08 11:56:53;;;;;;;8.67;6.63;;;4.30;99.90;;;;;;5019117;28;20550;-75
2023/01/08 11:59:30;;;;;;;9.87;6.80;;;4.40;99.90;;;;;;5022902;28;20461;-75
2023/01/08 12:02:09;;;;;;;9.10;5.63;;;4.30;99.90;;;;;;5026316;28;21171;-75
2023/01/08 12:05:03;;;;;;;8.80;5.60;;;4.30;99.90;;;;;;5027244;28;20492;-75
2023/01/08 12:07:37;;;;;;;6.77;5.73;;;4.30;99.90;;;;;;5023426;28;20612;-75
2023/01/08 12:10:14;;;;;;;10.43;4.97;;;4.30;99.90;;;;;;5021541;28;20555;-74
2023/01/08 12:12:50;;;;;;;10.10;6.63;;;4.40;99.90;;;;;;5015433;28;21308;-75
2023/01/08 12:15:25;;;;;;;9.07;6.30;;;4.40;99.90;;;;;;5013907;28;20564;-74
2023/01/08 12:18:22;;;;;;;8.37;6.40;;;4.50;99.90;;;;;;5017545;28;20457;-74
2023/01/08 12:20:59;;;;;;;12.47;6.17;;;4.50;99.90;;;;;;5022623;28;20454;-74
2023/01/08 12:23:42;;;;;;;10.93;5.90;;;4.50;99.90;;;;;;5017640;28;20943;-74
2023/01/08 12:26:18;;;;;;;8.30;6.30;;;4.50;99.90;;;;;;5021393;28;20589;-74
2023/01/08 12:29:15;;;;;;;7.87;4.63;;;4.50;99.90;;;;;;5020811;28;20469;-76
2023/01/08 12:32:02;;;;;;;9.90;5.97;;;4.50;99.90;;;;;;5024179;28;20453;-76
2023/01/08 12:34:38;;;;;;;7.33;5.83;;;4.70;99.90;;;;;;5026089;28;20458;-76
2023/01/08 12:37:13;;;;;;;7.97;5.47;;;4.80;99.90;;;;;;5018305;28;20457;-76
2023/01/08 12:39:47;;;;;;;8.57;6.00;;;4.60;99.90;;;;;;5009546;28;20809;-74
2023/01/08 12:42:23;;;;;;;6.60;5.40;;;4.40;99.90;;;;;;5006774;28;20897;-75
2023/01/08 12:44:53;;;;;;;9.00;6.20;;;4.40;99.90;;;;;;5013454;28;20890;-74
2023/01/08 12:47:25;;;;;;;9.53;6.20;;;4.50;99.90;;;;;;5006260;28;20895;-75
2023/01/08 12:50:01;;;;;;;6.60;5.53;;;4.50;99.90;;;;;;5006134;28;20466;-74
2023/01/08 12:52:39;;;;;;;7.63;5.73;;;4.50;99.90;;;;;;5006759;28;20874;-75
2023/01/08 12:55:27;;;;;;;6.70;4.00;;;4.50;99.90;;;;;;5015096;28;20568;-74
2023/01/08 12:58:02;;;;;;;6.90;5.17;;;4.70;99.90;;;;;;5009358;28;20468;-75